createdAt,value
2023-03-26T00:00:15.171Z,6.50
2023-03-26T00:02:43.274Z,6.50
2023-03-26T00:05:14.528Z,6.50
2023-03-26T00:07:42.744Z,6.90
2023-03-26T00:10:11.527Z,6.50
2023-03-26T00:12:41.000Z,6.50
2023-03-26T00:15:10.464Z,6.40
2023-03-26T00:17:38.713Z,6.40
2023-03-26T00:20:09.034Z,6.40
2023-03-26T00:22:37.389Z,6.50
2023-03-26T00:25:07.256Z,5.70
2023-03-26T00:27:36.010Z,6.50
2023-03-26T00:30:06.378Z,6.50
2023-03-26T00:32:35.045Z,6.50
2023-03-26T00:35:04.432Z,6.50
2023-03-26T00:37:34.411Z,6.50
2023-03-26T00:40:06.988Z,6.50
2023-03-26T00:42:37.654Z,6.50
2023-03-26T00:45:09.558Z,6.50
2023-03-26T00:47:42.365Z,6.60
2023-03-26T00:50:15.762Z,6.80
2023-03-26T00:52:45.292Z,6.70
2023-03-26T00:55:15.981Z,6.70
2023-03-26T00:57:46.259Z,6.70
2023-03-26T01:00:22.104Z,6.70
2023-03-26T01:02:50.259Z,6.70
2023-03-26T01:05:43.586Z,6.90
2023-03-26T01:08:27.799Z,6.70
2023-03-26T01:11:03.490Z,6.70
2023-03-26T01:13:35.548Z,6.70
2023-03-26T01:16:11.257Z,6.70
2023-03-26T01:18:41.965Z,6.70
2023-03-26T01:21:13.805Z,6.80
2023-03-26T01:23:46.762Z,6.80
2023-03-26T01:26:29.650Z,6.80
2023-03-26T01:29:03.760Z,6.90
2023-03-26T01:31:39.691Z,6.90
2023-03-26T01:34:13.296Z,7.00
2023-03-26T01:36:49.072Z,6.90
2023-03-26T01:39:22.672Z,7.00
2023-03-26T01:41:55.692Z,7.20
2023-03-26T01:44:31.496Z,7.10
2023-03-26T01:47:01.640Z,7.10
2023-03-26T01:49:31.021Z,7.00
2023-03-26T01:52:01.315Z,7.20
2023-03-26T01:54:32.490Z,7.00
2023-03-26T01:57:10.641Z,7.00
2023-03-26T02:00:12.736Z,7.00
2023-03-26T02:02:59.654Z,6.90
2023-03-26T02:05:33.052Z,7.10
2023-03-26T02:08:09.583Z,6.90
2023-03-26T02:10:42.530Z,6.90
2023-03-26T02:13:12.770Z,7.00
2023-03-26T02:15:41.575Z,7.00
2023-03-26T02:18:16.184Z,7.00
2023-03-26T02:20:44.236Z,7.10
2023-03-26T02:23:12.454Z,7.10
2023-03-26T02:25:42.171Z,7.10
2023-03-26T02:28:12.978Z,7.10
2023-03-26T02:30:41.189Z,7.10
2023-03-26T02:33:09.378Z,7.10
2023-03-26T02:35:45.760Z,7.00
2023-03-26T02:38:14.970Z,7.20
2023-03-26T02:40:45.796Z,7.10
2023-03-26T02:43:15.517Z,7.00
2023-03-26T02:45:44.636Z,7.10
2023-03-26T02:48:42.579Z,7.10
2023-03-26T02:51:20.118Z,7.10
2023-03-26T02:54:11.005Z,7.10
2023-03-26T02:57:02.827Z,7.20
2023-03-26T02:59:46.319Z,7.20
2023-03-26T03:02:33.272Z,7.10
2023-03-26T03:05:18.052Z,7.20
2023-03-26T03:07:47.851Z,7.20
2023-03-26T03:10:16.194Z,7.20
2023-03-26T03:13:07.618Z,7.20
2023-03-26T03:15:37.536Z,7.20
2023-03-26T03:18:06.027Z,7.20
2023-03-26T03:20:35.778Z,7.20
2023-03-26T03:23:04.318Z,7.20
2023-03-26T03:25:33.734Z,7.20
2023-03-26T03:28:02.260Z,7.20
2023-03-26T03:30:30.498Z,7.20
2023-03-26T03:33:22.850Z,7.40
2023-03-26T03:35:51.914Z,7.40
2023-03-26T03:38:20.697Z,7.20
2023-03-26T03:40:53.316Z,7.30
2023-03-26T03:43:21.976Z,7.30
2023-03-26T03:46:02.969Z,7.30
2023-03-26T03:48:52.730Z,7.30
2023-03-26T03:51:28.718Z,7.30
2023-03-26T03:54:06.044Z,7.30
2023-03-26T03:56:56.808Z,7.30
2023-03-26T03:59:25.064Z,7.30
2023-03-26T04:01:55.988Z,7.30
2023-03-26T04:04:50.347Z,7.40
2023-03-26T04:07:21.584Z,7.40
2023-03-26T04:10:10.439Z,7.30
2023-03-26T04:13:18.182Z,7.40
2023-03-26T04:15:59.026Z,7.40
2023-03-26T04:18:33.158Z,7.40
2023-03-26T04:21:12.476Z,7.50
2023-03-26T04:23:42.298Z,7.50
2023-03-26T04:26:24.850Z,7.60
2023-03-26T04:29:25.673Z,7.50
2023-03-26T04:31:59.659Z,7.50
2023-03-26T04:34:30.150Z,7.50
2023-03-26T04:37:24.795Z,8.00
2023-03-26T04:40:08.352Z,7.60
2023-03-26T04:42:47.044Z,7.50
2023-03-26T04:45:24.043Z,7.60
2023-03-26T04:47:58.470Z,8.40
2023-03-26T04:50:27.749Z,7.50
2023-03-26T04:52:58.559Z,7.60
2023-03-26T04:55:51.353Z,7.60
2023-03-26T04:58:36.991Z,7.60
2023-03-26T05:01:10.271Z,7.70
2023-03-26T05:03:44.871Z,7.60
2023-03-26T05:06:15.425Z,7.50
2023-03-26T05:08:44.942Z,7.50
2023-03-26T05:11:21.625Z,7.50
2023-03-26T05:13:49.753Z,7.50
2023-03-26T05:16:18.646Z,7.50
2023-03-26T05:18:54.571Z,7.50
2023-03-26T05:21:23.854Z,7.70
2023-03-26T05:23:53.433Z,8.00
2023-03-26T05:26:23.044Z,7.50
2023-03-26T05:28:52.408Z,7.60
2023-03-26T05:31:41.311Z,7.50
2023-03-26T05:34:09.428Z,7.50
2023-03-26T05:36:38.145Z,7.60
2023-03-26T05:39:27.620Z,7.60
2023-03-26T05:42:14.114Z,7.50
2023-03-26T05:45:00.691Z,7.50
2023-03-26T05:47:31.323Z,7.60
2023-03-26T05:50:00.133Z,7.50
2023-03-26T05:52:28.559Z,7.80
2023-03-26T05:55:18.364Z,7.60
2023-03-26T05:58:05.343Z,7.60
2023-03-26T06:00:58.506Z,7.60
2023-03-26T06:03:36.052Z,7.60
2023-03-26T06:06:16.969Z,7.50
2023-03-26T06:09:01.910Z,7.70
2023-03-26T06:11:33.145Z,7.50
2023-03-26T06:14:03.750Z,7.50
2023-03-26T06:16:33.028Z,7.50
2023-03-26T06:19:17.578Z,8.10
2023-03-26T06:22:12.956Z,7.50
2023-03-26T06:25:11.032Z,7.50
2023-03-26T06:27:51.872Z,7.50
2023-03-26T06:30:46.286Z,7.50
2023-03-26T06:33:24.623Z,7.50
2023-03-26T06:35:53.059Z,8.20
2023-03-26T06:38:21.537Z,7.70
2023-03-26T06:40:50.547Z,7.50
2023-03-26T06:43:20.165Z,7.50
2023-03-26T06:46:08.721Z,7.50
2023-03-26T06:48:55.485Z,7.50
2023-03-26T06:51:49.419Z,7.50
2023-03-26T06:54:42.499Z,7.50
2023-03-26T06:57:17.021Z,7.50
2023-03-26T07:00:06.302Z,7.70
2023-03-26T07:02:53.487Z,7.60
2023-03-26T07:05:42.508Z,7.60
2023-03-26T07:08:30.862Z,8.40
2023-03-26T07:11:19.435Z,7.50
2023-03-26T07:14:17.100Z,7.50
2023-03-26T07:17:23.276Z,7.60
2023-03-26T07:20:01.391Z,7.50
2023-03-26T07:22:32.336Z,7.60
2023-03-26T07:25:27.492Z,7.60
2023-03-26T07:28:31.110Z,7.60
2023-03-26T07:31:29.549Z,7.70
2023-03-26T07:34:23.090Z,7.80
2023-03-26T07:37:20.894Z,7.90
2023-03-26T07:40:18.620Z,8.00
2023-03-26T07:43:28.975Z,8.00
2023-03-26T07:46:26.047Z,8.10
2023-03-26T07:49:24.422Z,8.10
2023-03-26T07:52:06.716Z,8.10
2023-03-26T07:54:54.580Z,8.20
2023-03-26T07:57:50.772Z,8.20
2023-03-26T08:00:41.413Z,8.20
2023-03-26T08:03:27.127Z,8.20
2023-03-26T08:06:06.422Z,8.20
2023-03-26T08:09:05.510Z,8.30
2023-03-26T08:11:47.519Z,8.60
2023-03-26T08:14:39.590Z,8.90
2023-03-26T08:17:12.580Z,9.40
2023-03-26T08:19:52.189Z,9.70
2023-03-26T08:22:27.914Z,10.00
2023-03-26T08:25:16.703Z,10.00
2023-03-26T08:27:52.446Z,9.90
2023-03-26T08:30:23.744Z,9.80
2023-03-26T08:32:57.217Z,9.70
2023-03-26T08:35:26.053Z,9.70
2023-03-26T08:37:55.830Z,9.80
2023-03-26T08:40:45.513Z,9.90
2023-03-26T08:43:45.882Z,10.00
2023-03-26T08:46:34.638Z,10.10
2023-03-26T08:49:36.868Z,10.10
2023-03-26T08:52:38.716Z,10.00
2023-03-26T08:55:36.526Z,9.80
2023-03-26T08:58:37.290Z,9.60
2023-03-26T09:01:45.437Z,9.50
2023-03-26T09:04:54.973Z,9.50
2023-03-26T09:08:23.610Z,9.50
2023-03-26T09:11:05.091Z,9.60
2023-03-26T09:14:19.716Z,9.70
2023-03-26T09:17:14.255Z,9.90
2023-03-26T09:20:21.914Z,10.20
2023-03-26T09:23:28.978Z,10.60
2023-03-26T09:26:35.557Z,10.70
2023-03-26T09:29:35.052Z,10.90
2023-03-26T09:32:35.642Z,10.90
2023-03-26T09:35:14.136Z,10.90
2023-03-26T09:37:58.571Z,10.80
2023-03-26T09:40:38.653Z,10.80
2023-03-26T09:43:37.373Z,10.70
2023-03-26T09:46:15.564Z,10.50
2023-03-26T09:48:55.835Z,10.20
2023-03-26T09:51:48.859Z,10.00
2023-03-26T09:54:53.918Z,9.90
2023-03-26T09:57:34.381Z,9.90
2023-03-26T10:00:20.921Z,9.90
2023-03-26T10:03:12.737Z,10.20
2023-03-26T10:05:50.455Z,10.40
2023-03-26T10:08:41.708Z,10.50
2023-03-26T10:11:17.834Z,10.70
2023-03-26T10:13:59.166Z,10.90
2023-03-26T10:16:36.216Z,11.00
2023-03-26T10:19:22.414Z,11.00
2023-03-26T10:21:59.891Z,11.20
2023-03-26T10:24:48.319Z,11.40
2023-03-26T10:27:38.308Z,11.50
2023-03-26T10:30:34.851Z,11.60
2023-03-26T10:33:14.601Z,11.50
2023-03-26T10:35:51.862Z,11.50
2023-03-26T10:38:26.816Z,11.30
2023-03-26T10:41:04.466Z,11.30
2023-03-26T10:44:08.119Z,11.30
2023-03-26T10:47:15.956Z,11.50
2023-03-26T10:50:22.634Z,11.50
2023-03-26T10:52:55.624Z,11.50
2023-03-26T10:55:30.990Z,11.40
2023-03-26T10:58:01.752Z,11.40
2023-03-26T11:00:31.137Z,11.40
2023-03-26T11:03:21.778Z,11.50
2023-03-26T11:05:57.863Z,11.70
2023-03-26T11:08:35.827Z,11.70
2023-03-26T11:11:12.185Z,11.50
2023-03-26T11:13:52.169Z,11.50
2023-03-26T11:16:26.843Z,11.60
2023-03-26T11:19:00.660Z,11.50
2023-03-26T11:21:35.729Z,11.60
2023-03-26T11:24:30.734Z,11.60
2023-03-26T11:27:15.452Z,11.60
2023-03-26T11:29:51.572Z,11.50
2023-03-26T11:32:23.674Z,11.40
2023-03-26T11:35:00.897Z,11.40
2023-03-26T11:37:34.930Z,11.60
2023-03-26T11:40:11.894Z,11.80
2023-03-26T11:42:41.408Z,11.90
2023-03-26T11:45:18.047Z,12.10
2023-03-26T11:47:49.058Z,12.20
2023-03-26T11:50:20.624Z,12.40
2023-03-26T11:52:54.061Z,12.50
2023-03-26T11:55:23.867Z,12.40
2023-03-26T11:57:56.614Z,12.40
2023-03-26T12:00:27.620Z,12.30
2023-03-26T12:02:58.977Z,12.70
2023-03-26T12:05:33.716Z,12.30
2023-03-26T12:08:18.748Z,12.50
2023-03-26T12:10:59.568Z,12.50
2023-03-26T12:13:34.487Z,12.70
2023-03-26T12:16:08.282Z,12.90
2023-03-26T12:18:38.188Z,13.10
2023-03-26T12:21:09.416Z,13.30
2023-03-26T12:23:45.547Z,13.40
2023-03-26T12:26:17.584Z,13.30
2023-03-26T12:28:47.424Z,13.40
2023-03-26T12:31:18.292Z,13.40
2023-03-26T12:33:52.843Z,13.40
2023-03-26T12:36:26.490Z,13.50
2023-03-26T12:39:16.391Z,13.60
2023-03-26T12:44:47.167Z,13.70
2023-03-26T12:44:53.115Z,13.60
2023-03-26T12:47:59.835Z,13.50
2023-03-26T12:50:16.752Z,13.40
2023-03-26T12:53:07.845Z,13.20
2023-03-26T12:55:51.305Z,13.30
2023-03-26T12:58:35.217Z,13.20
2023-03-26T13:01:15.909Z,13.10
2023-03-26T13:04:08.680Z,13.10
2023-03-26T13:06:59.253Z,13.10
2023-03-26T13:10:11.261Z,13.00
2023-03-26T13:12:48.696Z,12.90
2023-03-26T13:15:23.743Z,12.80
2023-03-26T13:18:06.233Z,12.70
2023-03-26T13:20:50.277Z,12.50
2023-03-26T13:23:29.695Z,12.50
2023-03-26T13:26:06.343Z,12.30
2023-03-26T13:28:44.844Z,12.20
2023-03-26T13:31:21.963Z,12.20
2023-03-26T13:33:58.872Z,12.10
2023-03-26T13:36:34.024Z,11.90
2023-03-26T13:39:18.300Z,11.90
2023-03-26T13:42:01.591Z,11.80
2023-03-26T13:44:39.785Z,11.70
2023-03-26T13:47:12.938Z,11.70
2023-03-26T13:49:45.129Z,11.70
2023-03-26T13:52:18.831Z,11.90
2023-03-26T13:54:53.057Z,11.90
2023-03-26T13:57:25.601Z,12.20
2023-03-26T13:59:59.584Z,11.70
2023-03-26T14:02:34.841Z,12.00
2023-03-26T14:05:09.283Z,11.80
2023-03-26T14:07:42.709Z,11.80
2023-03-26T14:10:14.317Z,11.90
2023-03-26T14:12:51.227Z,11.80
2023-03-26T14:15:28.012Z,11.70
2023-03-26T14:18:06.197Z,11.60
2023-03-26T14:21:11.902Z,11.40
2023-03-26T14:24:10.797Z,11.20
2023-03-26T14:27:09.439Z,11.20
2023-03-26T14:30:05.674Z,11.00
2023-03-26T14:33:03.295Z,11.00
2023-03-26T14:35:40.682Z,11.00
2023-03-26T14:38:36.781Z,11.10
2023-03-26T14:41:20.067Z,11.20
2023-03-26T14:44:22.832Z,11.20
2023-03-26T14:47:07.426Z,11.20
2023-03-26T14:50:08.245Z,11.30
2023-03-26T14:52:47.423Z,11.40
2023-03-26T14:55:23.499Z,11.50
2023-03-26T14:58:24.973Z,11.90
2023-03-26T15:01:25.518Z,11.80
2023-03-26T15:04:43.622Z,11.80
2023-03-26T15:07:57.935Z,11.70
2023-03-26T15:11:02.171Z,11.60
2023-03-26T15:13:49.614Z,11.40
2023-03-26T15:17:04.431Z,11.10
2023-03-26T15:20:15.387Z,11.00
2023-03-26T15:23:18.747Z,10.90
2023-03-26T15:26:17.284Z,10.70
2023-03-26T15:29:19.052Z,10.50
2023-03-26T15:32:18.341Z,10.20
2023-03-26T15:35:18.143Z,9.90
2023-03-26T15:38:21.062Z,9.60
2023-03-26T15:40:58.728Z,9.40
2023-03-26T15:43:48.145Z,9.20
2023-03-26T15:46:35.884Z,9.30
2023-03-26T15:49:12.490Z,9.60
2023-03-26T15:51:49.285Z,9.80
2023-03-26T15:54:23.838Z,9.90
2023-03-26T15:57:17.057Z,9.80
2023-03-26T16:00:15.169Z,9.70
2023-03-26T16:02:53.960Z,9.70
2023-03-26T16:05:41.899Z,9.70
2023-03-26T16:08:25.572Z,9.70
2023-03-26T16:10:56.377Z,9.70
2023-03-26T16:13:33.576Z,9.60
2023-03-26T16:16:25.005Z,9.50
2023-03-26T16:18:59.441Z,9.50
2023-03-26T16:21:47.438Z,9.40
2023-03-26T16:24:32.666Z,9.40
2023-03-26T16:27:27.174Z,9.40
2023-03-26T16:30:26.341Z,9.50
2023-03-26T16:32:58.571Z,9.50
2023-03-26T16:35:41.618Z,9.40
2023-03-26T16:38:16.304Z,9.40
2023-03-26T16:41:07.035Z,9.30
2023-03-26T16:44:10.558Z,9.20
2023-03-26T16:46:54.702Z,9.20
2023-03-26T16:49:42.573Z,9.10
2023-03-26T16:52:27.301Z,9.20
2023-03-26T16:55:07.769Z,9.10
2023-03-26T16:57:46.671Z,9.20
2023-03-26T17:00:41.213Z,9.30
2023-03-26T17:03:42.292Z,9.30
2023-03-26T17:06:28.610Z,9.20
2023-03-26T17:09:04.272Z,9.20
2023-03-26T17:11:42.529Z,9.20
2023-03-26T17:14:37.337Z,9.10
2023-03-26T17:17:20.014Z,9.00
2023-03-26T17:19:54.890Z,8.90
2023-03-26T17:22:33.738Z,8.90
2023-03-26T17:25:09.371Z,9.00
2023-03-26T17:27:50.102Z,9.00
2023-03-26T17:30:36.281Z,8.80
2023-03-26T17:33:16.390Z,8.70
2023-03-26T17:35:47.756Z,8.70
2023-03-26T17:38:49.973Z,8.60
2023-03-26T17:41:56.887Z,8.60
2023-03-26T17:44:47.516Z,8.50
2023-03-26T17:47:39.479Z,8.50
2023-03-26T17:50:14.655Z,8.40
2023-03-26T17:52:57.455Z,8.40
2023-03-26T17:55:30.939Z,8.30
2023-03-26T17:58:01.364Z,8.30
2023-03-26T18:00:33.863Z,8.30
2023-03-26T18:03:06.986Z,8.30
2023-03-26T18:05:40.056Z,8.30
2023-03-26T18:08:48.760Z,8.20
2023-03-26T18:12:04.167Z,8.20
2023-03-26T18:14:53.267Z,8.20
2023-03-26T18:17:23.063Z,8.20
2023-03-26T18:19:53.614Z,8.10
2023-03-26T18:22:26.010Z,8.20
2023-03-26T18:24:59.636Z,8.10
2023-03-26T18:27:34.564Z,8.10
2023-03-26T18:30:14.639Z,8.00
2023-03-26T18:35:28.206Z,7.90
2023-03-26T18:38:00.060Z,7.90
2023-03-26T18:40:40.673Z,7.90
2023-03-26T18:43:28.830Z,7.80
2023-03-26T18:46:04.016Z,7.80
2023-03-26T18:48:33.615Z,7.90
2023-03-26T18:51:05.057Z,7.90
2023-03-26T18:53:38.918Z,7.80
2023-03-26T18:56:21.269Z,7.90
2023-03-26T18:58:53.135Z,7.80
2023-03-26T19:01:26.064Z,8.10
2023-03-26T19:03:55.781Z,7.80
2023-03-26T19:06:25.894Z,7.80
2023-03-26T19:08:54.531Z,7.80
2023-03-26T19:11:23.034Z,7.70
2023-03-26T19:14:03.949Z,7.70
2023-03-26T19:16:36.465Z,7.70
2023-03-26T19:19:08.242Z,7.70
2023-03-26T19:21:36.973Z,7.70
2023-03-26T19:24:06.445Z,7.60
2023-03-26T19:26:36.483Z,7.60
2023-03-26T19:29:06.303Z,7.60
2023-03-26T19:31:36.635Z,7.70
2023-03-26T19:34:25.973Z,7.60
2023-03-26T19:37:00.942Z,7.50
2023-03-26T19:39:40.150Z,7.50
2023-03-26T19:42:13.425Z,7.50
2023-03-26T19:44:42.683Z,7.50
2023-03-26T19:47:18.468Z,7.40
2023-03-26T19:49:56.970Z,7.40
2023-03-26T19:52:27.736Z,7.40
2023-03-26T19:55:01.587Z,7.30
2023-03-26T19:57:32.015Z,7.30
2023-03-26T20:00:00.967Z,7.30
2023-03-26T20:02:29.191Z,7.20
2023-03-26T20:04:58.888Z,7.70
2023-03-26T20:07:35.095Z,7.20
2023-03-26T20:10:05.718Z,7.30
2023-03-26T20:12:34.270Z,7.20
2023-03-26T20:15:02.794Z,7.20
2023-03-26T20:17:34.738Z,7.20
2023-03-26T20:20:05.920Z,7.20
2023-03-26T20:22:33.935Z,7.20
2023-03-26T20:25:03.315Z,7.20
2023-03-26T20:27:31.312Z,7.10
2023-03-26T20:29:59.373Z,7.10
2023-03-26T20:32:27.528Z,7.10
2023-03-26T20:34:57.689Z,7.20
2023-03-26T20:37:27.467Z,7.10
2023-03-26T20:39:55.752Z,7.10
2023-03-26T20:42:23.750Z,7.10
2023-03-26T20:44:51.879Z,7.20
2023-03-26T20:47:19.883Z,7.10
2023-03-26T20:49:50.880Z,7.10
2023-03-26T20:52:18.908Z,7.10
2023-03-26T20:54:49.183Z,7.10
2023-03-26T20:57:18.180Z,7.10
2023-03-26T20:59:46.787Z,7.10
2023-03-26T21:02:14.948Z,7.10
2023-03-26T21:04:43.022Z,7.00
2023-03-26T21:07:18.198Z,7.00
2023-03-26T21:09:49.115Z,7.20
2023-03-26T21:12:29.436Z,6.90
2023-03-26T21:14:58.003Z,6.90
2023-03-26T21:17:27.089Z,6.90
2023-03-26T21:19:55.861Z,6.90
2023-03-26T21:22:33.486Z,6.90
2023-03-26T21:25:17.059Z,6.90
2023-03-26T21:27:57.353Z,6.90
2023-03-26T21:30:25.866Z,6.90
2023-03-26T21:32:54.249Z,6.90
2023-03-26T21:35:23.035Z,6.90
2023-03-26T21:37:52.437Z,6.90
2023-03-26T21:40:22.349Z,6.90
2023-03-26T21:42:52.407Z,7.00
2023-03-26T21:45:22.910Z,7.00
2023-03-26T21:47:51.733Z,7.00
2023-03-26T21:50:22.808Z,6.90
2023-03-26T21:52:52.747Z,6.90
2023-03-26T21:55:24.334Z,6.90
2023-03-26T21:58:22.673Z,6.80
2023-03-26T22:01:02.689Z,6.80
2023-03-26T22:03:38.586Z,6.70
2023-03-26T22:06:11.571Z,6.70
2023-03-26T22:08:42.873Z,6.70
2023-03-26T22:11:13.414Z,6.70
2023-03-26T22:13:42.240Z,6.60
2023-03-26T22:16:11.735Z,6.70
2023-03-26T22:18:39.795Z,6.70
2023-03-26T22:21:08.191Z,6.60
2023-03-26T22:23:38.252Z,6.70
2023-03-26T22:26:08.066Z,6.80
2023-03-26T22:28:37.460Z,6.80
2023-03-26T22:31:09.718Z,6.80
2023-03-26T22:33:39.989Z,6.80
2023-03-26T22:36:22.027Z,6.80
2023-03-26T22:38:54.788Z,6.80
2023-03-26T22:41:23.454Z,6.80
2023-03-26T22:43:55.250Z,6.90
2023-03-26T22:46:24.167Z,6.90
2023-03-26T22:48:55.889Z,6.90
2023-03-26T22:51:24.403Z,6.90
2023-03-26T22:53:52.497Z,6.90
2023-03-26T22:56:20.617Z,6.80
2023-03-26T22:58:48.672Z,6.90
2023-03-26T23:01:21.288Z,6.90
2023-03-26T23:03:49.584Z,6.90
2023-03-26T23:06:17.917Z,6.80
2023-03-26T23:08:46.245Z,6.80
2023-03-26T23:11:16.245Z,6.90
2023-03-26T23:13:45.771Z,6.80
2023-03-26T23:16:14.825Z,6.80
2023-03-26T23:18:44.781Z,6.70
2023-03-26T23:21:15.328Z,6.70
2023-03-26T23:23:43.670Z,6.70
2023-03-26T23:26:12.014Z,6.90
2023-03-26T23:28:41.039Z,6.70
2023-03-26T23:31:12.017Z,6.70
2023-03-26T23:33:46.620Z,6.60
2023-03-26T23:36:19.026Z,6.80
2023-03-26T23:38:48.944Z,6.60
2023-03-26T23:41:18.673Z,6.60
2023-03-26T23:43:54.471Z,6.60
2023-03-26T23:46:24.462Z,6.60
2023-03-26T23:48:53.248Z,6.50
2023-03-26T23:51:23.994Z,6.50
2023-03-26T23:53:52.752Z,6.80
2023-03-26T23:56:21.199Z,6.50
2023-03-26T23:58:51.810Z,6.50
